sensor_id;sensor_type;location;lat;lon;timestamp;pressure;altitude;pressure_sealevel;temperature;humidity
65134;BME280;51713;40.700;-111.794;2022-07-24T00:02:04;84266.93;;;29.37;19.93
65134;BME280;51713;40.700;-111.794;2022-07-24T00:04:32;84265.69;;;29.05;20.09
65134;BME280;51713;40.700;-111.794;2022-07-24T00:07:01;84263.04;;;29.06;20.04
65134;BME280;51713;40.700;-111.794;2022-07-24T00:09:29;84261.19;;;29.08;20.00
65134;BME280;51713;40.700;-111.794;2022-07-24T00:11:57;84261.48;;;29.22;19.81
65134;BME280;51713;40.700;-111.794;2022-07-24T00:14:26;84265.01;;;29.29;20.26
65134;BME280;51713;40.700;-111.794;2022-07-24T00:16:54;84260.55;;;29.53;20.43
65134;BME280;51713;40.700;-111.794;2022-07-24T00:19:23;84262.75;;;29.24;20.66
65134;BME280;51713;40.700;-111.794;2022-07-24T00:21:51;84261.25;;;29.51;20.69
65134;BME280;51713;40.700;-111.794;2022-07-24T00:24:19;84262.29;;;29.13;20.80
65134;BME280;51713;40.700;-111.794;2022-07-24T00:26:47;84260.83;;;29.05;20.91
65134;BME280;51713;40.700;-111.794;2022-07-24T00:29:16;84261.39;;;29.13;20.93
65134;BME280;51713;40.700;-111.794;2022-07-24T00:31:44;84260.18;;;29.78;20.61
65134;BME280;51713;40.700;-111.794;2022-07-24T00:34:12;84258.69;;;29.63;20.57
65134;BME280;51713;40.700;-111.794;2022-07-24T00:36:41;84257.56;;;29.59;20.45
65134;BME280;51713;40.700;-111.794;2022-07-24T00:39:09;84255.61;;;29.93;20.31
65134;BME280;51713;40.700;-111.794;2022-07-24T00:41:38;84254.49;;;29.17;20.37
65134;BME280;51713;40.700;-111.794;2022-07-24T00:44:10;84250.55;;;29.46;20.25
65134;BME280;51713;40.700;-111.794;2022-07-24T00:46:42;84255.40;;;29.56;20.11
65134;BME280;51713;40.700;-111.794;2022-07-24T00:49:12;84251.61;;;29.68;19.92
65134;BME280;51713;40.700;-111.794;2022-07-24T00:51:42;84249.16;;;29.54;19.95
65134;BME280;51713;40.700;-111.794;2022-07-24T00:54:12;84253.05;;;29.24;20.11
65134;BME280;51713;40.700;-111.794;2022-07-24T00:56:42;84247.78;;;29.46;19.91
65134;BME280;51713;40.700;-111.794;2022-07-24T00:59:11;84249.88;;;29.16;20.03
65134;BME280;51713;40.700;-111.794;2022-07-24T01:01:40;84244.75;;;28.90;20.16
65134;BME280;51713;40.700;-111.794;2022-07-24T01:04:08;84246.34;;;29.30;19.85
65134;BME280;51713;40.700;-111.794;2022-07-24T01:06:37;84242.47;;;29.30;19.81
65134;BME280;51713;40.700;-111.794;2022-07-24T01:09:08;84239.63;;;28.97;19.97
65134;BME280;51713;40.700;-111.794;2022-07-24T01:11:37;84236.97;;;29.25;19.57
65134;BME280;51713;40.700;-111.794;2022-07-24T01:14:06;84237.41;;;29.27;19.69
65134;BME280;51713;40.700;-111.794;2022-07-24T01:16:34;84241.00;;;29.05;19.81
65134;BME280;51713;40.700;-111.794;2022-07-24T01:19:03;84242.08;;;29.09;19.75
65134;BME280;51713;40.700;-111.794;2022-07-24T01:21:31;84244.69;;;29.39;19.66
65134;BME280;51713;40.700;-111.794;2022-07-24T01:23:59;84243.53;;;29.18;19.60
65134;BME280;51713;40.700;-111.794;2022-07-24T01:26:27;84243.24;;;29.24;19.70
65134;BME280;51713;40.700;-111.794;2022-07-24T01:28:55;84247.14;;;29.02;20.05
65134;BME280;51713;40.700;-111.794;2022-07-24T01:31:23;84249.92;;;29.16;20.38
65134;BME280;51713;40.700;-111.794;2022-07-24T01:33:51;84251.45;;;29.14;20.62
65134;BME280;51713;40.700;-111.794;2022-07-24T01:36:19;84251.93;;;29.50;20.53
65134;BME280;51713;40.700;-111.794;2022-07-24T01:38:47;84249.31;;;29.04;20.56
65134;BME280;51713;40.700;-111.794;2022-07-24T01:41:16;84249.76;;;29.24;20.63
65134;BME280;51713;40.700;-111.794;2022-07-24T01:43:44;84246.26;;;29.11;20.60
65134;BME280;51713;40.700;-111.794;2022-07-24T01:46:12;84249.29;;;29.60;20.51
65134;BME280;51713;40.700;-111.794;2022-07-24T01:48:41;84246.50;;;29.42;20.65
65134;BME280;51713;40.700;-111.794;2022-07-24T01:51:11;84246.90;;;29.36;20.58
65134;BME280;51713;40.700;-111.794;2022-07-24T01:53:39;84245.74;;;29.24;20.48
65134;BME280;51713;40.700;-111.794;2022-07-24T01:56:07;84247.40;;;29.01;20.82
65134;BME280;51713;40.700;-111.794;2022-07-24T01:58:36;84247.34;;;28.93;20.85
65134;BME280;51713;40.700;-111.794;2022-07-24T02:01:04;84246.43;;;29.60;20.63
65134;BME280;51713;40.700;-111.794;2022-07-24T02:03:31;84247.23;;;29.48;20.77
65134;BME280;51713;40.700;-111.794;2022-07-24T02:06:00;84250.95;;;29.70;20.64
65134;BME280;51713;40.700;-111.794;2022-07-24T02:08:28;84252.10;;;29.56;20.59
65134;BME280;51713;40.700;-111.794;2022-07-24T02:10:56;84252.67;;;29.90;20.57
65134;BME280;51713;40.700;-111.794;2022-07-24T02:13:24;84254.37;;;29.44;20.58
65134;BME280;51713;40.700;-111.794;2022-07-24T02:15:53;84257.24;;;29.68;20.82
65134;BME280;51713;40.700;-111.794;2022-07-24T02:18:21;84257.54;;;29.43;20.86
65134;BME280;51713;40.700;-111.794;2022-07-24T02:20:49;84256.82;;;29.46;20.85
65134;BME280;51713;40.700;-111.794;2022-07-24T02:23:17;84256.79;;;29.51;21.06
65134;BME280;51713;40.700;-111.794;2022-07-24T02:25:47;84256.89;;;29.57;21.05
65134;BME280;51713;40.700;-111.794;2022-07-24T02:28:16;84255.57;;;29.57;20.90
65134;BME280;51713;40.700;-111.794;2022-07-24T02:30:44;84252.34;;;29.17;21.19
65134;BME280;51713;40.700;-111.794;2022-07-24T02:33:14;84251.98;;;29.65;21.07
65134;BME280;51713;40.700;-111.794;2022-07-24T02:35:42;84254.34;;;29.66;21.11
65134;BME280;51713;40.700;-111.794;2022-07-24T02:38:11;84255.70;;;29.35;21.37
65134;BME280;51713;40.700;-111.794;2022-07-24T02:40:39;84251.11;;;29.54;21.28
65134;BME280;51713;40.700;-111.794;2022-07-24T02:43:07;84248.63;;;29.30;21.29
65134;BME280;51713;40.700;-111.794;2022-07-24T02:45:35;84246.42;;;29.60;21.28
65134;BME280;51713;40.700;-111.794;2022-07-24T02:48:04;84244.80;;;29.71;21.23
65134;BME280;51713;40.700;-111.794;2022-07-24T02:50:33;84243.12;;;29.44;21.25
65134;BME280;51713;40.700;-111.794;2022-07-24T02:53:02;84241.93;;;29.77;21.22
65134;BME280;51713;40.700;-111.794;2022-07-24T02:55:32;84240.24;;;29.93;21.12
65134;BME280;51713;40.700;-111.794;2022-07-24T02:58:00;84240.43;;;29.95;21.12
65134;BME280;51713;40.700;-111.794;2022-07-24T03:00:30;84244.40;;;29.80;21.25
65134;BME280;51713;40.700;-111.794;2022-07-24T03:02:59;84246.05;;;29.52;21.11
65134;BME280;51713;40.700;-111.794;2022-07-24T03:05:27;84245.69;;;29.76;21.12
65134;BME280;51713;40.700;-111.794;2022-07-24T03:07:55;84246.41;;;29.71;21.16
65134;BME280;51713;40.700;-111.794;2022-07-24T03:10:23;84245.57;;;29.72;21.17
65134;BME280;51713;40.700;-111.794;2022-07-24T03:12:52;84250.42;;;29.37;21.45
65134;BME280;51713;40.700;-111.794;2022-07-24T03:15:20;84257.21;;;28.92;21.65
65134;BME280;51713;40.700;-111.794;2022-07-24T03:17:50;84257.74;;;29.59;21.53
65134;BME280;51713;40.700;-111.794;2022-07-24T03:20:19;84259.96;;;29.41;21.67
65134;BME280;51713;40.700;-111.794;2022-07-24T03:22:49;84263.76;;;29.36;21.70
65134;BME280;51713;40.700;-111.794;2022-07-24T03:25:18;84263.62;;;29.08;21.72
65134;BME280;51713;40.700;-111.794;2022-07-24T03:27:46;84265.16;;;29.18;21.68
65134;BME280;51713;40.700;-111.794;2022-07-24T03:30:16;84267.09;;;29.40;21.71
65134;BME280;51713;40.700;-111.794;2022-07-24T03:32:45;84264.82;;;29.32;21.61
65134;BME280;51713;40.700;-111.794;2022-07-24T03:35:13;84263.82;;;29.37;21.58
65134;BME280;51713;40.700;-111.794;2022-07-24T03:37:42;84268.09;;;29.25;21.67
65134;BME280;51713;40.700;-111.794;2022-07-24T03:40:11;84269.62;;;29.31;21.62
65134;BME280;51713;40.700;-111.794;2022-07-24T03:42:39;84268.46;;;29.31;21.46
65134;BME280;51713;40.700;-111.794;2022-07-24T03:45:09;84273.99;;;29.00;21.71
65134;BME280;51713;40.700;-111.794;2022-07-24T03:47:37;84278.02;;;29.29;21.66
65134;BME280;51713;40.700;-111.794;2022-07-24T03:50:06;84280.92;;;29.23;21.72
65134;BME280;51713;40.700;-111.794;2022-07-24T03:52:34;84287.10;;;29.11;21.65
65134;BME280;51713;40.700;-111.794;2022-07-24T03:55:03;84288.93;;;28.95;21.78
65134;BME280;51713;40.700;-111.794;2022-07-24T03:57:31;84289.27;;;29.15;21.67
65134;BME280;51713;40.700;-111.794;2022-07-24T03:59:59;84294.24;;;29.54;21.56
65134;BME280;51713;40.700;-111.794;2022-07-24T04:02:27;84297.63;;;29.42;21.62
65134;BME280;51713;40.700;-111.794;2022-07-24T04:04:54;84298.39;;;29.64;21.55
65134;BME280;51713;40.700;-111.794;2022-07-24T04:07:22;84291.63;;;29.66;21.68
65134;BME280;51713;40.700;-111.794;2022-07-24T04:09:50;84292.99;;;29.39;21.68
65134;BME280;51713;40.700;-111.794;2022-07-24T04:12:19;84292.06;;;29.51;21.60
65134;BME280;51713;40.700;-111.794;2022-07-24T04:14:47;84290.89;;;29.49;21.63
65134;BME280;51713;40.700;-111.794;2022-07-24T04:17:16;84283.38;;;29.41;21.70
65134;BME280;51713;40.700;-111.794;2022-07-24T04:19:44;84287.00;;;29.26;21.82
65134;BME280;51713;40.700;-111.794;2022-07-24T04:22:11;84279.47;;;29.57;21.81
65134;BME280;51713;40.700;-111.794;2022-07-24T04:24:39;84282.26;;;28.99;21.87
65134;BME280;51713;40.700;-111.794;2022-07-24T04:27:08;84284.82;;;29.16;21.77
65134;BME280;51713;40.700;-111.794;2022-07-24T04:29:37;84289.59;;;29.38;21.76
65134;BME280;51713;40.700;-111.794;2022-07-24T04:32:05;84290.07;;;29.04;21.88
65134;BME280;51713;40.700;-111.794;2022-07-24T04:34:33;84287.60;;;29.21;21.91
65134;BME280;51713;40.700;-111.794;2022-07-24T04:37:01;84290.50;;;29.30;21.86
65134;BME280;51713;40.700;-111.794;2022-07-24T04:39:29;84288.56;;;29.36;21.82
65134;BME280;51713;40.700;-111.794;2022-07-24T04:41:57;84291.87;;;29.38;21.80
65134;BME280;51713;40.700;-111.794;2022-07-24T04:44:25;84292.14;;;29.02;21.92
65134;BME280;51713;40.700;-111.794;2022-07-24T04:46:53;84295.30;;;29.48;21.95
65134;BME280;51713;40.700;-111.794;2022-07-24T04:49:20;84295.47;;;29.42;21.80
65134;BME280;51713;40.700;-111.794;2022-07-24T04:51:48;84292.05;;;29.74;21.77
65134;BME280;51713;40.700;-111.794;2022-07-24T04:54:17;84293.58;;;29.47;21.83
65134;BME280;51713;40.700;-111.794;2022-07-24T04:56:46;84288.14;;;29.21;21.83
65134;BME280;51713;40.700;-111.794;2022-07-24T04:59:13;84286.58;;;29.41;21.86
65134;BME280;51713;40.700;-111.794;2022-07-24T05:01:41;84279.57;;;29.43;21.83
65134;BME280;51713;40.700;-111.794;2022-07-24T05:04:10;84274.75;;;29.51;21.78
65134;BME280;51713;40.700;-111.794;2022-07-24T05:06:38;84274.50;;;29.79;21.57
65134;BME280;51713;40.700;-111.794;2022-07-24T05:09:05;84277.76;;;29.32;21.75
65134;BME280;51713;40.700;-111.794;2022-07-24T05:11:35;84283.77;;;29.39;21.88
65134;BME280;51713;40.700;-111.794;2022-07-24T05:14:03;84275.18;;;29.93;21.68
65134;BME280;51713;40.700;-111.794;2022-07-24T05:16:31;84270.15;;;29.97;21.65
65134;BME280;51713;40.700;-111.794;2022-07-24T05:18:59;84273.61;;;29.52;21.79
65134;BME280;51713;40.700;-111.794;2022-07-24T05:21:27;84276.02;;;29.55;21.74
65134;BME280;51713;40.700;-111.794;2022-07-24T05:23:55;84284.34;;;29.75;21.81
65134;BME280;51713;40.700;-111.794;2022-07-24T05:26:23;84283.72;;;29.45;21.64
65134;BME280;51713;40.700;-111.794;2022-07-24T05:28:52;84279.57;;;29.47;21.67
65134;BME280;51713;40.700;-111.794;2022-07-24T05:31:20;84277.49;;;29.53;21.60
65134;BME280;51713;40.700;-111.794;2022-07-24T05:33:48;84277.14;;;29.40;21.68
65134;BME280;51713;40.700;-111.794;2022-07-24T05:36:16;84283.56;;;29.56;21.74
65134;BME280;51713;40.700;-111.794;2022-07-24T05:38:45;84282.22;;;29.63;21.67
65134;BME280;51713;40.700;-111.794;2022-07-24T05:41:14;84283.46;;;29.64;21.76
65134;BME280;51713;40.700;-111.794;2022-07-24T05:43:42;84283.98;;;29.55;21.58
65134;BME280;51713;40.700;-111.794;2022-07-24T05:46:11;84281.98;;;29.86;21.52
65134;BME280;51713;40.700;-111.794;2022-07-24T05:48:39;84284.66;;;29.88;21.49
65134;BME280;51713;40.700;-111.794;2022-07-24T05:51:07;84286.83;;;29.68;21.55
65134;BME280;51713;40.700;-111.794;2022-07-24T05:53:36;84290.59;;;29.59;21.57
65134;BME280;51713;40.700;-111.794;2022-07-24T05:56:05;84296.12;;;29.58;21.57
65134;BME280;51713;40.700;-111.794;2022-07-24T05:58:34;84300.65;;;29.88;21.51
65134;BME280;51713;40.700;-111.794;2022-07-24T06:01:02;84304.95;;;29.72;21.66
65134;BME280;51713;40.700;-111.794;2022-07-24T06:03:31;84301.26;;;29.56;21.63
65134;BME280;51713;40.700;-111.794;2022-07-24T06:05:59;84300.78;;;29.81;21.64
65134;BME280;51713;40.700;-111.794;2022-07-24T06:08:27;84301.73;;;29.80;21.46
65134;BME280;51713;40.700;-111.794;2022-07-24T06:10:55;84302.74;;;29.76;21.53
65134;BME280;51713;40.700;-111.794;2022-07-24T06:13:23;84304.69;;;29.33;21.83
65134;BME280;51713;40.700;-111.794;2022-07-24T06:15:52;84298.49;;;29.49;21.72
65134;BME280;51713;40.700;-111.794;2022-07-24T06:18:21;84295.39;;;29.70;21.66
65134;BME280;51713;40.700;-111.794;2022-07-24T06:20:49;84298.32;;;29.39;21.82
65134;BME280;51713;40.700;-111.794;2022-07-24T06:23:17;84299.91;;;29.60;21.85
65134;BME280;51713;40.700;-111.794;2022-07-24T06:25:46;84300.73;;;29.81;21.70
65134;BME280;51713;40.700;-111.794;2022-07-24T06:28:14;84299.68;;;30.15;21.78
65134;BME280;51713;40.700;-111.794;2022-07-24T06:30:42;84300.52;;;30.06;21.91
65134;BME280;51713;40.700;-111.794;2022-07-24T06:33:10;84303.95;;;29.87;21.70
65134;BME280;51713;40.700;-111.794;2022-07-24T06:35:38;84310.38;;;29.46;21.83
65134;BME280;51713;40.700;-111.794;2022-07-24T06:38:06;84312.78;;;29.43;21.89
65134;BME280;51713;40.700;-111.794;2022-07-24T06:40:33;84312.44;;;29.72;21.79
65134;BME280;51713;40.700;-111.794;2022-07-24T06:43:03;84315.68;;;29.71;21.67
65134;BME280;51713;40.700;-111.794;2022-07-24T06:45:31;84323.40;;;29.48;21.84
65134;BME280;51713;40.700;-111.794;2022-07-24T06:48:00;84322.76;;;29.68;21.72
65134;BME280;51713;40.700;-111.794;2022-07-24T06:50:28;84323.88;;;29.85;21.62
65134;BME280;51713;40.700;-111.794;2022-07-24T06:52:57;84331.77;;;30.04;21.82
65134;BME280;51713;40.700;-111.794;2022-07-24T06:55:24;84332.59;;;29.59;21.81
65134;BME280;51713;40.700;-111.794;2022-07-24T06:57:52;84331.18;;;29.80;21.83
65134;BME280;51713;40.700;-111.794;2022-07-24T07:00:21;84331.97;;;29.67;21.76
65134;BME280;51713;40.700;-111.794;2022-07-24T07:02:49;84329.25;;;29.64;21.79
65134;BME280;51713;40.700;-111.794;2022-07-24T07:05:16;84325.31;;;29.56;22.01
65134;BME280;51713;40.700;-111.794;2022-07-24T07:07:44;84321.48;;;29.41;21.98
65134;BME280;51713;40.700;-111.794;2022-07-24T07:10:13;84316.65;;;29.68;21.89
65134;BME280;51713;40.700;-111.794;2022-07-24T07:12:41;84318.82;;;29.63;21.82
65134;BME280;51713;40.700;-111.794;2022-07-24T07:15:10;84314.98;;;29.70;21.84
65134;BME280;51713;40.700;-111.794;2022-07-24T07:17:39;84311.56;;;29.56;22.07
65134;BME280;51713;40.700;-111.794;2022-07-24T07:20:09;84310.79;;;29.33;22.13
65134;BME280;51713;40.700;-111.794;2022-07-24T07:22:38;84315.23;;;29.42;22.04
65134;BME280;51713;40.700;-111.794;2022-07-24T07:25:07;84298.05;;;29.42;22.07
65134;BME280;51713;40.700;-111.794;2022-07-24T07:27:37;84291.93;;;29.85;21.96
65134;BME280;51713;40.700;-111.794;2022-07-24T07:30:06;84289.51;;;29.40;22.08
65134;BME280;51713;40.700;-111.794;2022-07-24T07:32:34;84286.01;;;29.83;21.96
65134;BME280;51713;40.700;-111.794;2022-07-24T07:35:03;84285.11;;;29.69;21.90
65134;BME280;51713;40.700;-111.794;2022-07-24T07:37:31;84284.44;;;29.61;21.97
65134;BME280;51713;40.700;-111.794;2022-07-24T07:39:59;84286.57;;;29.57;22.02
65134;BME280;51713;40.700;-111.794;2022-07-24T07:42:28;84284.49;;;29.75;22.02
65134;BME280;51713;40.700;-111.794;2022-07-24T07:44:57;84284.88;;;29.48;22.10
65134;BME280;51713;40.700;-111.794;2022-07-24T07:47:24;84286.47;;;29.65;21.98
65134;BME280;51713;40.700;-111.794;2022-07-24T07:49:52;84285.21;;;29.65;22.19
65134;BME280;51713;40.700;-111.794;2022-07-24T07:52:20;84286.82;;;29.74;21.91
65134;BME280;51713;40.700;-111.794;2022-07-24T07:54:48;84287.48;;;29.61;22.05
65134;BME280;51713;40.700;-111.794;2022-07-24T07:57:16;84286.78;;;29.57;22.11
65134;BME280;51713;40.700;-111.794;2022-07-24T07:59:44;84289.14;;;29.53;22.15
65134;BME280;51713;40.700;-111.794;2022-07-24T08:02:12;84296.42;;;29.78;22.05
65134;BME280;51713;40.700;-111.794;2022-07-24T08:04:40;84302.91;;;29.63;22.05
65134;BME280;51713;40.700;-111.794;2022-07-24T08:07:08;84307.83;;;29.68;22.03
65134;BME280;51713;40.700;-111.794;2022-07-24T08:09:35;84305.69;;;29.52;22.16
65134;BME280;51713;40.700;-111.794;2022-07-24T08:12:04;84308.99;;;29.72;22.19
65134;BME280;51713;40.700;-111.794;2022-07-24T08:14:33;84307.14;;;30.15;22.05
65134;BME280;51713;40.700;-111.794;2022-07-24T08:17:00;84306.81;;;29.48;22.19
65134;BME280;51713;40.700;-111.794;2022-07-24T08:19:29;84301.74;;;29.76;21.97
65134;BME280;51713;40.700;-111.794;2022-07-24T08:21:57;84300.46;;;29.66;22.05
65134;BME280;51713;40.700;-111.794;2022-07-24T08:24:25;84295.24;;;30.01;21.93
65134;BME280;51713;40.700;-111.794;2022-07-24T08:26:52;84291.37;;;29.70;22.15
65134;BME280;51713;40.700;-111.794;2022-07-24T08:29:20;84293.50;;;29.70;21.99
65134;BME280;51713;40.700;-111.794;2022-07-24T08:31:48;84290.79;;;29.80;21.91
65134;BME280;51713;40.700;-111.794;2022-07-24T08:34:17;84292.70;;;30.04;22.08
65134;BME280;51713;40.700;-111.794;2022-07-24T08:36:45;84299.24;;;29.61;22.09
65134;BME280;51713;40.700;-111.794;2022-07-24T08:39:13;84298.07;;;29.85;22.00
65134;BME280;51713;40.700;-111.794;2022-07-24T08:41:42;84293.98;;;30.05;22.29
65134;BME280;51713;40.700;-111.794;2022-07-24T08:44:11;84294.29;;;29.82;22.02
65134;BME280;51713;40.700;-111.794;2022-07-24T08:46:41;84296.43;;;29.68;22.06
65134;BME280;51713;40.700;-111.794;2022-07-24T08:49:11;84297.38;;;29.78;22.14
65134;BME280;51713;40.700;-111.794;2022-07-24T08:51:41;84296.75;;;29.68;22.06
65134;BME280;51713;40.700;-111.794;2022-07-24T08:54:10;84295.08;;;29.65;22.22
65134;BME280;51713;40.700;-111.794;2022-07-24T08:56:40;84295.80;;;29.67;22.22
65134;BME280;51713;40.700;-111.794;2022-07-24T08:59:17;84296.48;;;29.68;22.38
65134;BME280;51713;40.700;-111.794;2022-07-24T09:01:46;84293.22;;;29.95;22.34
65134;BME280;51713;40.700;-111.794;2022-07-24T09:04:48;84298.24;;;29.52;22.27
65134;BME280;51713;40.700;-111.794;2022-07-24T09:07:18;84298.70;;;29.62;22.23
65134;BME280;51713;40.700;-111.794;2022-07-24T09:10:00;84292.34;;;29.71;22.09
65134;BME280;51713;40.700;-111.794;2022-07-24T09:12:33;84295.77;;;29.52;22.48
65134;BME280;51713;40.700;-111.794;2022-07-24T09:15:02;84290.76;;;29.80;22.87
65134;BME280;51713;40.700;-111.794;2022-07-24T09:17:48;84296.21;;;29.63;22.33
65134;BME280;51713;40.700;-111.794;2022-07-24T09:20:17;84292.82;;;29.73;22.66
65134;BME280;51713;40.700;-111.794;2022-07-24T09:22:46;84297.95;;;29.57;22.32
65134;BME280;51713;40.700;-111.794;2022-07-24T09:25:16;84297.82;;;29.63;22.13
65134;BME280;51713;40.700;-111.794;2022-07-24T09:27:49;84300.50;;;29.59;22.43
65134;BME280;51713;40.700;-111.794;2022-07-24T09:30:26;84312.02;;;29.53;22.07
65134;BME280;51713;40.700;-111.794;2022-07-24T09:32:56;84302.75;;;29.65;22.17
65134;BME280;51713;40.700;-111.794;2022-07-24T09:35:30;84300.74;;;29.69;22.22
65134;BME280;51713;40.700;-111.794;2022-07-24T09:38:01;84297.87;;;29.62;21.93
65134;BME280;51713;40.700;-111.794;2022-07-24T09:40:32;84297.76;;;29.65;22.09
65134;BME280;51713;40.700;-111.794;2022-07-24T09:43:33;84299.33;;;29.40;22.15
65134;BME280;51713;40.700;-111.794;2022-07-24T09:46:03;84301.19;;;29.51;22.24
65134;BME280;51713;40.700;-111.794;2022-07-24T09:48:34;84297.36;;;29.92;22.43
65134;BME280;51713;40.700;-111.794;2022-07-24T09:51:04;84295.64;;;29.76;22.55
65134;BME280;51713;40.700;-111.794;2022-07-24T09:53:34;84299.11;;;29.61;22.18
65134;BME280;51713;40.700;-111.794;2022-07-24T09:56:05;84296.34;;;29.56;22.18
65134;BME280;51713;40.700;-111.794;2022-07-24T09:58:36;84302.24;;;30.15;22.15
65134;BME280;51713;40.700;-111.794;2022-07-24T10:01:06;84317.64;;;29.59;22.04
65134;BME280;51713;40.700;-111.794;2022-07-24T10:03:37;84318.29;;;29.57;22.02
65134;BME280;51713;40.700;-111.794;2022-07-24T10:06:08;84322.32;;;29.55;21.98
65134;BME280;51713;40.700;-111.794;2022-07-24T10:08:40;84327.50;;;29.48;21.98
65134;BME280;51713;40.700;-111.794;2022-07-24T10:11:10;84333.65;;;29.56;21.98
65134;BME280;51713;40.700;-111.794;2022-07-24T10:13:39;84339.05;;;29.71;22.22
65134;BME280;51713;40.700;-111.794;2022-07-24T10:16:29;84340.92;;;29.90;22.06
65134;BME280;51713;40.700;-111.794;2022-07-24T10:18:59;84340.25;;;30.04;21.98
65134;BME280;51713;40.700;-111.794;2022-07-24T10:21:29;84338.96;;;29.49;22.10
65134;BME280;51713;40.700;-111.794;2022-07-24T10:24:13;84341.70;;;29.86;22.42
65134;BME280;51713;40.700;-111.794;2022-07-24T10:26:49;84340.58;;;29.65;22.38
65134;BME280;51713;40.700;-111.794;2022-07-24T10:29:19;84338.36;;;29.67;22.11
65134;BME280;51713;40.700;-111.794;2022-07-24T10:31:49;84337.86;;;29.62;22.23
65134;BME280;51713;40.700;-111.794;2022-07-24T10:34:30;84336.71;;;29.45;22.36
65134;BME280;51713;40.700;-111.794;2022-07-24T10:37:07;84335.52;;;29.44;22.58
65134;BME280;51713;40.700;-111.794;2022-07-24T10:39:43;84333.31;;;29.42;22.70
65134;BME280;51713;40.700;-111.794;2022-07-24T10:42:16;84338.75;;;29.22;22.27
65134;BME280;51713;40.700;-111.794;2022-07-24T10:44:44;84337.86;;;29.89;22.60
65134;BME280;51713;40.700;-111.794;2022-07-24T10:47:13;84338.25;;;29.34;22.36
65134;BME280;51713;40.700;-111.794;2022-07-24T10:49:44;84339.56;;;29.39;22.32
65134;BME280;51713;40.700;-111.794;2022-07-24T10:52:23;84338.94;;;29.64;22.16
65134;BME280;51713;40.700;-111.794;2022-07-24T10:55:30;84340.52;;;29.39;22.37
65134;BME280;51713;40.700;-111.794;2022-07-24T10:58:00;84337.82;;;29.49;22.16
65134;BME280;51713;40.700;-111.794;2022-07-24T11:00:33;84340.86;;;29.67;22.21
65134;BME280;51713;40.700;-111.794;2022-07-24T11:03:04;84337.99;;;29.61;22.30
65134;BME280;51713;40.700;-111.794;2022-07-24T11:05:34;84331.51;;;29.20;22.37
65134;BME280;51713;40.700;-111.794;2022-07-24T11:08:38;84326.07;;;29.80;22.31
65134;BME280;51713;40.700;-111.794;2022-07-24T11:11:09;84329.05;;;29.22;22.37
65134;BME280;51713;40.700;-111.794;2022-07-24T11:13:47;84329.87;;;29.43;22.41
65134;BME280;51713;40.700;-111.794;2022-07-24T11:16:21;84329.23;;;29.33;22.52
65134;BME280;51713;40.700;-111.794;2022-07-24T11:19:57;84331.73;;;29.34;22.23
65134;BME280;51713;40.700;-111.794;2022-07-24T11:22:39;84331.56;;;29.47;22.25
65134;BME280;51713;40.700;-111.794;2022-07-24T11:25:14;84338.47;;;29.36;22.23
65134;BME280;51713;40.700;-111.794;2022-07-24T11:27:53;84336.17;;;29.42;22.35
65134;BME280;51713;40.700;-111.794;2022-07-24T11:30:24;84344.40;;;29.36;22.26
65134;BME280;51713;40.700;-111.794;2022-07-24T11:32:54;84340.65;;;29.35;22.31
65134;BME280;51713;40.700;-111.794;2022-07-24T11:35:33;84345.86;;;29.48;22.31
65134;BME280;51713;40.700;-111.794;2022-07-24T11:38:03;84346.14;;;29.50;22.34
65134;BME280;51713;40.700;-111.794;2022-07-24T11:40:32;84346.79;;;29.30;22.52
65134;BME280;51713;40.700;-111.794;2022-07-24T11:43:02;84345.63;;;29.31;22.58
65134;BME280;51713;40.700;-111.794;2022-07-24T11:45:31;84350.41;;;29.32;22.60
65134;BME280;51713;40.700;-111.794;2022-07-24T11:47:59;84347.37;;;29.40;22.61
65134;BME280;51713;40.700;-111.794;2022-07-24T11:50:28;84348.85;;;29.44;22.79
65134;BME280;51713;40.700;-111.794;2022-07-24T11:52:56;84349.31;;;29.98;22.23
65134;BME280;51713;40.700;-111.794;2022-07-24T11:55:25;84348.38;;;29.42;22.68
65134;BME280;51713;40.700;-111.794;2022-07-24T11:57:55;84347.78;;;29.46;22.34
65134;BME280;51713;40.700;-111.794;2022-07-24T12:00:25;84356.59;;;29.42;22.34
65134;BME280;51713;40.700;-111.794;2022-07-24T12:02:55;84358.35;;;29.41;22.59
65134;BME280;51713;40.700;-111.794;2022-07-24T12:05:26;84353.40;;;29.36;22.56
65134;BME280;51713;40.700;-111.794;2022-07-24T12:07:55;84356.19;;;29.33;22.51
65134;BME280;51713;40.700;-111.794;2022-07-24T12:10:24;84356.83;;;29.30;22.82
65134;BME280;51713;40.700;-111.794;2022-07-24T12:12:53;84367.58;;;29.23;22.77
65134;BME280;51713;40.700;-111.794;2022-07-24T12:15:22;84365.22;;;29.22;22.48
65134;BME280;51713;40.700;-111.794;2022-07-24T12:17:58;84366.68;;;29.34;22.77
65134;BME280;51713;40.700;-111.794;2022-07-24T12:20:28;84376.49;;;29.55;22.44
65134;BME280;51713;40.700;-111.794;2022-07-24T12:22:58;84382.47;;;29.21;22.50
65134;BME280;51713;40.700;-111.794;2022-07-24T12:25:27;84379.11;;;29.22;22.50
65134;BME280;51713;40.700;-111.794;2022-07-24T12:28:04;84376.79;;;29.40;22.53
65134;BME280;51713;40.700;-111.794;2022-07-24T12:30:35;84375.40;;;29.26;22.75
65134;BME280;51713;40.700;-111.794;2022-07-24T12:33:05;84378.18;;;29.82;22.71
65134;BME280;51713;40.700;-111.794;2022-07-24T12:35:51;84383.19;;;29.31;22.54
65134;BME280;51713;40.700;-111.794;2022-07-24T12:38:25;84386.06;;;29.21;22.51
65134;BME280;51713;40.700;-111.794;2022-07-24T12:41:02;84391.37;;;29.84;22.44
65134;BME280;51713;40.700;-111.794;2022-07-24T12:43:31;84393.19;;;29.23;22.62
65134;BME280;51713;40.700;-111.794;2022-07-24T12:46:09;84401.68;;;29.37;22.57